Time;durP1;ratioP1;P1;durP2;ratioP2;P2;SDS_P1;SDS_P2;PMS_P1;PMS_P2;Temp;Humidity;BMP_temperature;BMP_pressure;BME280_temperature;BME280_humidity;BME280_pressure;Samples;Min_cycle;Max_cycle;Signal;HPM_P1;HPM_P2
2023/04/26 00:00:34;;;;;;;;;11.00;9.00;;;;;;;;4975529;28;45435;-75
2023/04/26 00:02:59;;;;;;;;;11.75;10.50;;;;;;;;4975585;28;45366;-75
2023/04/26 00:05:24;;;;;;;;;11.75;11.75;;;;;;;;4975093;28;45344;-75
2023/04/26 00:07:50;;;;;;;;;11.25;10.25;;;;;;;;4974672;28;45291;-75
2023/04/26 00:10:15;;;;;;;;;13.25;10.00;;;;;;;;4975402;28;45363;-75
2023/04/26 00:12:40;;;;;;;;;11.00;9.75;;;;;;;;4975523;28;45365;-75
2023/04/26 00:15:06;;;;;;;;;11.75;11.75;;;;;;;;4975159;28;45408;-75
2023/04/26 00:17:31;;;;;;;;;14.50;14.50;;;;;;;;4974602;28;45651;-76
2023/04/26 00:19:57;;;;;;;;;11.00;11.00;;;;;;;;4975170;28;45379;-75
2023/04/26 00:22:23;;;;;;;;;12.00;12.00;;;;;;;;4975192;28;45396;-76
2023/04/26 00:24:48;;;;;;;;;14.75;13.25;;;;;;;;4975666;28;45370;-76
2023/04/26 00:27:13;;;;;;;;;11.75;10.50;;;;;;;;4969338;28;46158;-75
2023/04/26 00:29:39;;;;;;;;;9.00;9.00;;;;;;;;4954445;28;45398;-75
2023/04/26 00:32:04;;;;;;;;;11.25;10.25;;;;;;;;4954245;28;45516;-74
2023/04/26 00:34:33;;;;;;;;;11.75;10.00;;;;;;;;4958867;28;45468;-74
2023/04/26 00:36:58;;;;;;;;;9.75;9.25;;;;;;;;4974838;28;46620;-75
2023/04/26 00:39:24;;;;;;;;;11.25;9.75;;;;;;;;4975127;28;45422;-75
2023/04/26 00:41:49;;;;;;;;;10.00;9.00;;;;;;;;4975090;28;45334;-75
2023/04/26 00:44:14;;;;;;;;;14.75;11.00;;;;;;;;4973858;28;45513;-76
2023/04/26 00:46:40;;;;;;;;;12.50;11.50;;;;;;;;4974796;28;46167;-75
2023/04/26 00:49:05;;;;;;;;;10.75;10.75;;;;;;;;4964000;28;45330;-74
2023/04/26 00:51:31;;;;;;;;;10.25;10.25;;;;;;;;4955453;28;45207;-75
2023/04/26 00:53:56;;;;;;;;;11.00;10.00;;;;;;;;4956386;28;45322;-75
2023/04/26 00:56:23;;;;;;;;;9.00;8.00;;;;;;;;4958861;28;45761;-75
2023/04/26 00:58:48;;;;;;;;;9.00;9.00;;;;;;;;4958745;28;45465;-74
2023/04/26 01:01:14;;;;;;;;;5.50;4.25;;;;;;;;4958998;28;45342;-75
2023/04/26 01:03:40;;;;;;;;;11.00;9.75;;;;;;;;4958752;28;45374;-75
2023/04/26 01:06:05;;;;;;;;;9.75;8.75;;;;;;;;4958464;28;46050;-75
2023/04/26 01:08:30;;;;;;;;;1.50;1.50;;;;;;;;4958847;28;45396;-75
2023/04/26 01:10:56;;;;;;;;;11.00;9.75;;;;;;;;4965313;28;45450;-75
2023/04/26 01:13:22;;;;;;;;;13.00;11.75;;;;;;;;4978560;28;45380;-75
2023/04/26 01:15:47;;;;;;;;;8.75;7.00;;;;;;;;4978670;28;45378;-75
2023/04/26 01:18:15;;;;;;;;;9.00;9.00;;;;;;;;4977298;28;45394;-75
2023/04/26 01:20:41;;;;;;;;;8.75;8.75;;;;;;;;4979826;28;45368;-75
2023/04/26 01:23:07;;;;;;;;;9.25;9.25;;;;;;;;4979726;28;45271;-75
2023/04/26 01:25:33;;;;;;;;;10.00;9.75;;;;;;;;4977976;28;45361;-75
2023/04/26 01:27:58;;;;;;;;;9.50;9.50;;;;;;;;4977376;28;45441;-75
2023/04/26 01:30:23;;;;;;;;;8.75;8.75;;;;;;;;4977922;28;45228;-75
2023/04/26 01:32:49;;;;;;;;;10.75;9.75;;;;;;;;4978233;28;45337;-75
2023/04/26 01:35:14;;;;;;;;;8.25;8.25;;;;;;;;4977399;28;45378;-76
2023/04/26 01:37:39;;;;;;;;;9.25;9.00;;;;;;;;4977827;28;45492;-75
2023/04/26 01:40:05;;;;;;;;;9.00;9.00;;;;;;;;4977731;28;45397;-75
2023/04/26 01:42:31;;;;;;;;;8.50;8.50;;;;;;;;4976194;28;45409;-75
2023/04/26 01:44:56;;;;;;;;;8.75;8.75;;;;;;;;4976275;28;46439;-75
2023/04/26 01:47:21;;;;;;;;;7.00;7.00;;;;;;;;4977464;28;45368;-76
2023/04/26 01:49:47;;;;;;;;;10.00;9.25;;;;;;;;4961145;28;45325;-74
2023/04/26 01:52:12;;;;;;;;;8.75;8.75;;;;;;;;4957861;28;45425;-75
2023/04/26 01:54:37;;;;;;;;;9.75;9.00;;;;;;;;4962131;28;45439;-75
2023/04/26 01:57:02;;;;;;;;;12.50;10.00;;;;;;;;4977546;28;45560;-75
2023/04/26 01:59:27;;;;;;;;;11.75;8.75;;;;;;;;4977458;28;45397;-76
2023/04/26 02:01:53;;;;;;;;;7.25;6.00;;;;;;;;4977564;28;45337;-76
2023/04/26 02:04:18;;;;;;;;;9.00;6.75;;;;;;;;4976977;28;45966;-75
2023/04/26 02:06:43;;;;;;;;;9.00;9.00;;;;;;;;4976110;28;45334;-75
2023/04/26 02:09:08;;;;;;;;;9.25;8.00;;;;;;;;4977550;28;45286;-75
2023/04/26 02:11:34;;;;;;;;;9.25;7.00;;;;;;;;4977184;28;45322;-76
2023/04/26 02:13:59;;;;;;;;;10.75;8.50;;;;;;;;4976917;28;45565;-75
2023/04/26 02:16:25;;;;;;;;;9.25;8.00;;;;;;;;4977136;28;45380;-75
2023/04/26 02:18:52;;;;;;;;;14.00;8.00;;;;;;;;4976808;28;45976;-75
2023/04/26 02:21:17;;;;;;;;;7.25;4.00;;;;;;;;4976800;28;45386;-76
2023/04/26 02:23:42;;;;;;;;;9.25;9.00;;;;;;;;4976887;28;45924;-75
2023/04/26 02:26:07;;;;;;;;;7.75;7.75;;;;;;;;4977266;28;45473;-75
2023/04/26 02:28:33;;;;;;;;;9.25;8.25;;;;;;;;4977375;28;45488;-75
2023/04/26 02:30:58;;;;;;;;;8.00;8.00;;;;;;;;4977142;28;45342;-75
2023/04/26 02:33:23;;;;;;;;;9.50;7.50;;;;;;;;4977100;28;45896;-76
2023/04/26 02:35:49;;;;;;;;;9.00;8.00;;;;;;;;4976531;28;45445;-75
2023/04/26 02:38:14;;;;;;;;;9.25;9.25;;;;;;;;4978111;28;45378;-75
2023/04/26 02:40:39;;;;;;;;;8.50;7.25;;;;;;;;4976127;28;45366;-75
2023/04/26 02:43:05;;;;;;;;;10.50;9.50;;;;;;;;4976739;28;45496;-74
2023/04/26 02:45:30;;;;;;;;;10.75;9.50;;;;;;;;4976630;28;45425;-76
2023/04/26 02:47:55;;;;;;;;;7.75;7.75;;;;;;;;4973378;28;45475;-75
2023/04/26 02:50:20;;;;;;;;;10.75;7.25;;;;;;;;4957440;28;45437;-75
2023/04/26 02:52:46;;;;;;;;;11.25;10.25;;;;;;;;4957175;28;46053;-76
2023/04/26 02:55:11;;;;;;;;;7.50;6.75;;;;;;;;4957373;28;45494;-75
2023/04/26 02:57:36;;;;;;;;;12.25;8.75;;;;;;;;4957351;28;45421;-76
2023/04/26 03:00:03;;;;;;;;;8.50;8.50;;;;;;;;4957088;28;45262;-75
2023/04/26 03:02:29;;;;;;;;;9.25;8.25;;;;;;;;4959769;28;45995;-76
2023/04/26 03:04:54;;;;;;;;;7.25;7.25;;;;;;;;4976207;28;45274;-75
2023/04/26 03:07:20;;;;;;;;;7.50;7.25;;;;;;;;4976614;28;45358;-75
2023/04/26 03:09:45;;;;;;;;;9.25;9.25;;;;;;;;4976685;28;45358;-75
2023/04/26 03:12:10;;;;;;;;;11.00;9.75;;;;;;;;4974901;28;45681;-75
2023/04/26 03:14:36;;;;;;;;;9.50;9.00;;;;;;;;4974791;28;45930;-75
2023/04/26 03:17:01;;;;;;;;;12.50;11.25;;;;;;;;4976192;28;45214;-75
2023/04/26 03:19:29;;;;;;;;;11.25;10.50;;;;;;;;4975168;28;45436;-75
2023/04/26 03:21:55;;;;;;;;;9.50;9.50;;;;;;;;4976279;28;45345;-75
2023/04/26 03:24:20;;;;;;;;;11.00;9.00;;;;;;;;4976078;28;45430;-75
2023/04/26 03:26:45;;;;;;;;;10.00;10.00;;;;;;;;4976090;28;45380;-75
2023/04/26 03:29:11;;;;;;;;;9.75;9.75;;;;;;;;4974773;28;45619;-76
2023/04/26 03:31:36;;;;;;;;;10.50;9.00;;;;;;;;4975813;28;46274;-75
2023/04/26 03:34:02;;;;;;;;;11.50;10.50;;;;;;;;4976300;28;45384;-75
2023/04/26 03:36:28;;;;;;;;;8.00;8.00;;;;;;;;4976081;28;45382;-75
2023/04/26 03:38:53;;;;;;;;;12.50;10.25;;;;;;;;4975701;28;45339;-75
2023/04/26 03:41:19;;;;;;;;;8.75;8.75;;;;;;;;4976168;28;46330;-74
2023/04/26 03:43:44;;;;;;;;;9.25;9.25;;;;;;;;4976054;28;45853;-75
2023/04/26 03:46:09;;;;;;;;;11.25;9.00;;;;;;;;4975574;28;45480;-75
2023/04/26 03:48:35;;;;;;;;;10.75;8.25;;;;;;;;4968926;28;45333;-76
2023/04/26 03:51:00;;;;;;;;;9.75;8.75;;;;;;;;4963566;28;45309;-75
2023/04/26 03:53:26;;;;;;;;;11.50;10.00;;;;;;;;4975696;28;45862;-75
2023/04/26 03:55:51;;;;;;;;;11.00;9.00;;;;;;;;4975877;28;45353;-75
2023/04/26 03:58:16;;;;;;;;;12.00;9.75;;;;;;;;4975778;28;45391;-75
2023/04/26 04:00:42;;;;;;;;;10.50;10.00;;;;;;;;4975638;28;45372;-75
2023/04/26 04:03:07;;;;;;;;;13.75;9.75;;;;;;;;4975420;28;45542;-75
2023/04/26 04:05:32;;;;;;;;;11.00;11.00;;;;;;;;4975829;28;45349;-75
2023/04/26 04:07:58;;;;;;;;;11.25;10.00;;;;;;;;4975752;28;45398;-75
2023/04/26 04:10:23;;;;;;;;;9.00;9.00;;;;;;;;4975472;28;45932;-75
2023/04/26 04:12:52;;;;;;;;;9.75;9.75;;;;;;;;4975610;28;45389;-74
2023/04/26 04:15:17;;;;;;;;;12.75;11.25;;;;;;;;4975553;28;45377;-75
2023/04/26 04:17:43;;;;;;;;;10.00;9.00;;;;;;;;4975422;28;45420;-75
2023/04/26 04:20:08;;;;;;;;;9.00;9.00;;;;;;;;4955946;28;46335;-75
2023/04/26 04:22:34;;;;;;;;;9.25;9.25;;;;;;;;4955554;28;45441;-76
2023/04/26 04:24:59;;;;;;;;;9.75;8.50;;;;;;;;4956628;28;45346;-74
2023/04/26 04:27:27;;;;;;;;;11.50;10.00;;;;;;;;4967393;28;45431;-75
2023/04/26 04:29:53;;;;;;;;;10.00;9.25;;;;;;;;4978892;28;46321;-75
2023/04/26 04:32:22;;;;;;;;;9.25;8.50;;;;;;;;4980804;28;45406;-74
2023/04/26 04:34:48;;;;;;;;;10.75;9.00;;;;;;;;4979580;28;45484;-74
2023/04/26 04:37:13;;;;;;;;;11.75;9.25;;;;;;;;4978773;28;45349;-74
2023/04/26 04:39:38;;;;;;;;;10.00;9.00;;;;;;;;4978240;28;45388;-75
2023/04/26 04:42:04;;;;;;;;;11.25;10.00;;;;;;;;4978565;28;45500;-75
2023/04/26 04:44:29;;;;;;;;;13.00;13.00;;;;;;;;4978533;28;45314;-75
2023/04/26 04:46:55;;;;;;;;;10.25;7.00;;;;;;;;4978501;28;45470;-75
2023/04/26 04:49:20;;;;;;;;;16.75;12.25;;;;;;;;4965405;28;45548;-75
2023/04/26 04:51:46;;;;;;;;;12.00;11.75;;;;;;;;4971997;28;45326;-75
2023/04/26 04:54:11;;;;;;;;;10.25;7.75;;;;;;;;4978535;28;45463;-75
2023/04/26 04:56:36;;;;;;;;;11.75;10.00;;;;;;;;4978296;28;45375;-75
2023/04/26 04:59:03;;;;;;;;;8.75;8.75;;;;;;;;4978053;28;46153;-75
2023/04/26 05:01:28;;;;;;;;;11.00;9.00;;;;;;;;4978197;28;45358;-75
2023/04/26 05:03:53;;;;;;;;;11.25;10.25;;;;;;;;4978100;28;45417;-75
2023/04/26 05:06:18;;;;;;;;;11.50;10.00;;;;;;;;4978252;28;45591;-74
2023/04/26 05:08:44;;;;;;;;;9.50;8.50;;;;;;;;4977964;28;46420;-75
2023/04/26 05:11:09;;;;;;;;;10.00;10.00;;;;;;;;4976941;28;45400;-75
2023/04/26 05:13:34;;;;;;;;;11.00;9.50;;;;;;;;4978021;28;45377;-75
2023/04/26 05:15:59;;;;;;;;;10.25;10.00;;;;;;;;4978051;28;45541;-74
2023/04/26 05:18:25;;;;;;;;;9.75;9.75;;;;;;;;4978104;28;45400;-76
2023/04/26 05:20:50;;;;;;;;;10.25;10.25;;;;;;;;4977976;28;45550;-77
2023/04/26 05:23:15;;;;;;;;;6.75;6.75;;;;;;;;4978086;28;45369;-75
2023/04/26 05:25:40;;;;;;;;;11.75;10.00;;;;;;;;4978099;28;45458;-76
2023/04/26 05:28:11;;;;;;;;;7.50;7.50;;;;;;;;4976269;28;45595;-75
2023/04/26 05:30:36;;;;;;;;;9.25;9.25;;;;;;;;4976659;28;45350;-76
2023/04/26 05:33:02;;;;;;;;;14.75;12.75;;;;;;;;4978302;28;45344;-75
2023/04/26 05:35:27;;;;;;;;;8.00;7.25;;;;;;;;4977839;28;45195;-75
2023/04/26 05:37:53;;;;;;;;;8.50;8.50;;;;;;;;4977682;28;46264;-75
2023/04/26 05:40:18;;;;;;;;;14.25;11.00;;;;;;;;4976843;28;45310;-75
2023/04/26 05:42:43;;;;;;;;;8.75;8.00;;;;;;;;4977726;28;45337;-75
2023/04/26 05:45:09;;;;;;;;;11.00;9.00;;;;;;;;4978159;28;45345;-75
2023/04/26 05:47:34;;;;;;;;;16.25;13.00;;;;;;;;4977149;28;46215;-75
2023/04/26 05:49:59;;;;;;;;;10.75;10.75;;;;;;;;4959572;28;45591;-75
2023/04/26 05:52:24;;;;;;;;;1.25;1.25;;;;;;;;4958412;28;45405;-74
2023/04/26 05:54:49;;;;;;;;;9.50;9.50;;;;;;;;4958073;28;45322;-74
2023/04/26 05:57:15;;;;;;;;;12.00;12.00;;;;;;;;4957503;28;46205;-75
2023/04/26 05:59:40;;;;;;;;;15.75;13.75;;;;;;;;4970493;28;45493;-75
2023/04/26 06:02:05;;;;;;;;;12.25;11.25;;;;;;;;4977462;28;45402;-75
2023/04/26 06:04:31;;;;;;;;;14.00;12.75;;;;;;;;4977458;28;45405;-75
2023/04/26 06:06:56;;;;;;;;;12.00;12.00;;;;;;;;4977254;28;46237;-75
2023/04/26 06:09:22;;;;;;;;;13.50;12.50;;;;;;;;4977123;28;45481;-74
2023/04/26 06:11:47;;;;;;;;;10.50;9.50;;;;;;;;4976730;28;45317;-75
2023/04/26 06:14:12;;;;;;;;;16.00;13.00;;;;;;;;4977136;28;45352;-75
2023/04/26 06:16:37;;;;;;;;;10.00;10.00;;;;;;;;4976925;28;45629;-75
2023/04/26 06:19:02;;;;;;;;;12.75;12.25;;;;;;;;4977090;28;45419;-75
2023/04/26 06:21:28;;;;;;;;;12.75;12.75;;;;;;;;4977295;28;45359;-75
2023/04/26 06:23:53;;;;;;;;;10.00;9.00;;;;;;;;4976773;28;45386;-75
2023/04/26 06:26:18;;;;;;;;;17.50;14.50;;;;;;;;4966424;28;47173;-75
2023/04/26 06:28:43;;;;;;;;;14.50;12.00;;;;;;;;4957054;28;45504;-74
2023/04/26 06:31:08;;;;;;;;;14.50;14.00;;;;;;;;4957214;28;45558;-75
2023/04/26 06:33:34;;;;;;;;;13.75;12.00;;;;;;;;4957350;28;45358;-75
2023/04/26 06:35:59;;;;;;;;;15.50;14.00;;;;;;;;4972025;28;45456;-75
2023/04/26 06:38:24;;;;;;;;;17.25;17.25;;;;;;;;4972990;28;45409;-75
2023/04/26 06:40:49;;;;;;;;;15.00;13.75;;;;;;;;4973641;28;45478;-74
2023/04/26 06:43:14;;;;;;;;;13.25;12.25;;;;;;;;4976862;28;45748;-76
2023/04/26 06:45:40;;;;;;;;;19.00;14.00;;;;;;;;4976541;28;45392;-75
2023/04/26 06:48:05;;;;;;;;;17.25;13.00;;;;;;;;4972854;28;45481;-74
2023/04/26 06:50:31;;;;;;;;;18.50;15.75;;;;;;;;4956913;28;45329;-76
2023/04/26 06:52:56;;;;;;;;;16.25;15.25;;;;;;;;4956840;28;45442;-75
2023/04/26 06:55:21;;;;;;;;;26.00;22.00;;;;;;;;4956521;28;46395;-76
2023/04/26 06:57:46;;;;;;;;;18.50;15.25;;;;;;;;4955741;28;45408;-75
2023/04/26 07:00:12;;;;;;;;;14.75;14.00;;;;;;;;4974543;28;45381;-74
2023/04/26 07:02:37;;;;;;;;;16.50;14.00;;;;;;;;4974517;28;45636;-74
2023/04/26 07:05:03;;;;;;;;;14.75;14.75;;;;;;;;4975820;28;46311;-73
2023/04/26 07:07:28;;;;;;;;;17.00;16.25;;;;;;;;4975828;28;45361;-74
2023/04/26 07:09:53;;;;;;;;;17.75;16.75;;;;;;;;4976132;28;45389;-74
2023/04/26 07:12:18;;;;;;;;;19.00;17.75;;;;;;;;4974360;28;45497;-74
2023/04/26 07:14:43;;;;;;;;;20.25;20.25;;;;;;;;4968659;28;45451;-75
2023/04/26 07:17:09;;;;;;;;;22.50;19.50;;;;;;;;4970665;28;46331;-74
2023/04/26 07:19:34;;;;;;;;;23.25;21.75;;;;;;;;4975842;28;45572;-74
2023/04/26 07:22:00;;;;;;;;;21.50;19.25;;;;;;;;4975725;28;45631;-74
2023/04/26 07:24:25;;;;;;;;;18.00;16.50;;;;;;;;4975338;28;45490;-74
2023/04/26 07:26:51;;;;;;;;;20.50;19.50;;;;;;;;4974164;28;45657;-75
2023/04/26 07:29:17;;;;;;;;;15.00;14.50;;;;;;;;4976143;28;45486;-74
2023/04/26 07:31:43;;;;;;;;;12.00;10.00;;;;;;;;4976442;28;45249;-73
2023/04/26 07:34:08;;;;;;;;;19.75;19.75;;;;;;;;4977033;28;45396;-74
2023/04/26 07:36:33;;;;;;;;;20.50;18.75;;;;;;;;4977194;28;45395;-74
2023/04/26 07:38:58;;;;;;;;;20.25;16.00;;;;;;;;4977393;28;45505;-74
2023/04/26 07:41:24;;;;;;;;;18.50;18.50;;;;;;;;4977209;28;45712;-74
2023/04/26 07:43:49;;;;;;;;;15.50;14.50;;;;;;;;4976624;28;45417;-74
2023/04/26 07:46:14;;;;;;;;;15.50;13.75;;;;;;;;4973614;28;45439;-74
2023/04/26 07:48:39;;;;;;;;;17.25;16.00;;;;;;;;4967539;28;45410;-76
2023/04/26 07:51:09;;;;;;;;;10.75;10.75;;;;;;;;4956155;28;45439;-77
2023/04/26 07:53:34;;;;;;;;;20.75;18.50;;;;;;;;4955577;28;46081;-74
2023/04/26 07:56:00;;;;;;;;;22.75;20.75;;;;;;;;4971166;28;45475;-75
2023/04/26 07:58:25;;;;;;;;;23.00;19.25;;;;;;;;4973921;28;45391;-75
2023/04/26 08:00:50;;;;;;;;;38.50;32.00;;;;;;;;4974754;28;45539;-75
2023/04/26 08:03:16;;;;;;;;;20.75;19.00;;;;;;;;4972805;28;45787;-75
2023/04/26 08:05:42;;;;;;;;;14.75;14.75;;;;;;;;4963471;28;45388;-75
2023/04/26 08:08:07;;;;;;;;;17.50;16.75;;;;;;;;4958920;28;45421;-75
2023/04/26 08:10:32;;;;;;;;;18.50;17.50;;;;;;;;4963070;28;45425;-75
2023/04/26 08:13:01;;;;;;;;;21.25;19.00;;;;;;;;4961974;28;45886;-75
2023/04/26 08:15:27;;;;;;;;;26.00;22.25;;;;;;;;4958797;28;45413;-77
2023/04/26 08:17:52;;;;;;;;;18.25;16.00;;;;;;;;4959088;28;45219;-77
2023/04/26 08:20:17;;;;;;;;;17.25;17.25;;;;;;;;4958836;28;45290;-77
2023/04/26 08:22:42;;;;;;;;;26.25;21.25;;;;;;;;4972700;28;46130;-77
2023/04/26 08:25:09;;;;;;;;;22.75;19.50;;;;;;;;4978529;28;45322;-77
2023/04/26 08:27:35;;;;;;;;;27.00;19.75;;;;;;;;4978642;28;45477;-75
2023/04/26 08:30:00;;;;;;;;;20.00;19.00;;;;;;;;4976711;28;45697;-75
2023/04/26 08:32:26;;;;;;;;;21.00;19.25;;;;;;;;4970813;28;46048;-76
2023/04/26 08:34:51;;;;;;;;;18.25;18.25;;;;;;;;4977785;28;45494;-75
2023/04/26 08:37:16;;;;;;;;;19.00;19.00;;;;;;;;4978345;28;45425;-75
2023/04/26 08:39:41;;;;;;;;;17.25;17.25;;;;;;;;4978509;28;45470;-75
2023/04/26 08:42:14;;;;;;;;;22.25;19.50;;;;;;;;4976735;28;45468;-76
2023/04/26 08:44:40;;;;;;;;;16.00;14.50;;;;;;;;4978023;28;45513;-76
2023/04/26 08:47:08;;;;;;;;;18.75;18.75;;;;;;;;4976913;28;45659;-75
2023/04/26 08:49:41;;;;;;;;;19.50;17.75;;;;;;;;4977741;28;45557;-76
2023/04/26 08:52:13;;;;;;;;;18.25;16.50;;;;;;;;4963632;28;45487;-76
2023/04/26 08:54:39;;;;;;;;;22.00;22.00;;;;;;;;4959004;28;45313;-76
2023/04/26 08:57:06;;;;;;;;;22.50;21.50;;;;;;;;4958859;28;45601;-75
2023/04/26 08:59:32;;;;;;;;;16.50;15.25;;;;;;;;4970318;28;45499;-76
2023/04/26 09:01:59;;;;;;;;;11.25;11.25;;;;;;;;4966708;28;45693;-75
2023/04/26 09:04:24;;;;;;;;;15.75;13.75;;;;;;;;4971776;28;45483;-76
2023/04/26 09:06:52;;;;;;;;;18.00;16.25;;;;;;;;4978126;28;45432;-76
2023/04/26 09:09:20;;;;;;;;;18.25;15.00;;;;;;;;4977936;28;45369;-77
2023/04/26 09:11:56;;;;;;;;;19.00;16.00;;;;;;;;4976430;28;47527;-76
2023/04/26 09:14:21;;;;;;;;;19.25;17.00;;;;;;;;4977560;28;45349;-77
2023/04/26 09:16:47;;;;;;;;;17.50;14.00;;;;;;;;4966907;28;45440;-77
2023/04/26 09:19:12;;;;;;;;;16.50;16.00;;;;;;;;4977535;28;45397;-78
2023/04/26 09:21:44;;;;;;;;;15.50;15.00;;;;;;;;4976039;28;47152;-76
2023/04/26 09:24:10;;;;;;;;;18.50;15.50;;;;;;;;4977447;28;45397;-77
2023/04/26 09:26:35;;;;;;;;;16.75;16.25;;;;;;;;4977366;28;45365;-77
2023/04/26 09:29:20;;;;;;;;;15.75;13.25;;;;;;;;4977617;28;45378;-77
2023/04/26 09:31:47;;;;;;;;;8.50;7.75;;;;;;;;4977024;28;46338;-77
2023/04/26 09:34:13;;;;;;;;;12.00;12.00;;;;;;;;4977075;28;45487;-76
2023/04/26 09:36:46;;;;;;;;;13.75;13.00;;;;;;;;4976334;28;45420;-77
2023/04/26 09:39:12;;;;;;;;;8.25;8.00;;;;;;;;4977573;28;45463;-76
2023/04/26 09:41:43;;;;;;;;;11.25;11.25;;;;;;;;4971594;28;46043;-76
2023/04/26 09:44:28;;;;;;;;;14.00;12.75;;;;;;;;4957827;28;45515;-76
2023/04/26 09:47:00;;;;;;;;;12.00;11.00;;;;;;;;4964125;28;45405;-76
2023/04/26 09:49:26;;;;;;;;;12.00;12.00;;;;;;;;4963469;28;45500;-76
2023/04/26 09:52:04;;;;;;;;;9.50;9.50;;;;;;;;4957676;28;45961;-76
2023/04/26 09:54:39;;;;;;;;;8.25;5.50;;;;;;;;4958239;28;45330;-78
2023/04/26 09:57:05;;;;;;;;;9.00;9.00;;;;;;;;4973950;28;45300;-76
2023/04/26 09:59:44;;;;;;;;;11.50;11.50;;;;;;;;4976899;28;45319;-76
2023/04/26 10:02:14;;;;;;;;;12.00;9.50;;;;;;;;4976331;28;46288;-76
2023/04/26 10:04:40;;;;;;;;;10.00;9.75;;;;;;;;4976676;28;45358;-78
2023/04/26 10:07:06;;;;;;;;;5.75;5.75;;;;;;;;4977089;28;45305;-78
2023/04/26 10:09:31;;;;;;;;;11.25;9.00;;;;;;;;4977485;28;45499;-78
2023/04/26 10:11:57;;;;;;;;;11.25;10.50;;;;;;;;4975290;28;46860;-79
2023/04/26 10:14:22;;;;;;;;;10.50;9.75;;;;;;;;4961406;28;45698;-79
2023/04/26 10:16:48;;;;;;;;;10.00;9.75;;;;;;;;4965279;28;45374;-78
2023/04/26 10:19:13;;;;;;;;;9.50;8.75;;;;;;;;4974481;28;45464;-79
2023/04/26 10:21:40;;;;;;;;;12.50;10.00;;;;;;;;4977046;28;45506;-78
2023/04/26 10:24:05;;;;;;;;;11.50;10.50;;;;;;;;4976644;28;45552;-78
2023/04/26 10:26:53;;;;;;;;;12.25;11.25;;;;;;;;4976012;28;45698;-78
2023/04/26 10:29:38;;;;;;;;;11.00;8.00;;;;;;;;4976825;28;45515;-79
2023/04/26 10:32:04;;;;;;;;;13.00;10.00;;;;;;;;4976246;28;45515;-78
2023/04/26 10:34:30;;;;;;;;;9.00;8.00;;;;;;;;4976579;28;45378;-79
2023/04/26 10:37:12;;;;;;;;;12.25;8.25;;;;;;;;4976425;28;45301;-78
2023/04/26 10:39:38;;;;;;;;;9.00;6.00;;;;;;;;4976866;28;45302;-78
2023/04/26 10:42:31;;;;;;;;;8.75;8.50;;;;;;;;4976044;28;45996;-78
2023/04/26 10:44:57;;;;;;;;;7.50;7.50;;;;;;;;4975453;28;45393;-78
2023/04/26 10:47:33;;;;;;;;;10.75;9.75;;;;;;;;4976279;28;45336;-78
2023/04/26 10:50:09;;;;;;;;;9.25;8.50;;;;;;;;4958695;28;45377;-76
2023/04/26 10:52:35;;;;;;;;;9.50;6.00;;;;;;;;4956864;28;45351;-76
2023/04/26 10:55:01;;;;;;;;;9.00;9.00;;;;;;;;4956797;28;45579;-77
2023/04/26 10:57:46;;;;;;;;;8.25;8.25;;;;;;;;4957146;28;45393;-76
2023/04/26 11:00:25;;;;;;;;;8.50;8.00;;;;;;;;4956653;28;45515;-76
2023/04/26 11:02:56;;;;;;;;;8.25;8.25;;;;;;;;4970772;28;45456;-77
2023/04/26 11:05:33;;;;;;;;;7.75;7.75;;;;;;;;4976011;28;45546;-76
2023/04/26 11:08:02;;;;;;;;;6.75;6.75;;;;;;;;4976449;28;45345;-76
2023/04/26 11:10:28;;;;;;;;;7.75;6.25;;;;;;;;4976656;28;45398;-77
2023/04/26 11:13:02;;;;;;;;;8.75;6.50;;;;;;;;4977640;28;45417;-77
2023/04/26 11:15:27;;;;;;;;;6.00;5.00;;;;;;;;4977472;28;45404;-77
2023/04/26 11:17:53;;;;;;;;;6.50;6.50;;;;;;;;4977754;28;45480;-77
2023/04/26 11:20:18;;;;;;;;;6.00;6.00;;;;;;;;4978178;28;45614;-76
2023/04/26 11:22:43;;;;;;;;;6.25;6.25;;;;;;;;4976208;28;45585;-77
2023/04/26 11:25:10;;;;;;;;;8.75;7.50;;;;;;;;4976201;28;45326;-77
2023/04/26 11:27:36;;;;;;;;;7.00;7.00;;;;;;;;4975989;28;45579;-76
2023/04/26 11:30:02;;;;;;;;;6.75;6.75;;;;;;;;4975658;28;45502;-76
2023/04/26 11:32:27;;;;;;;;;8.00;8.00;;;;;;;;4976115;28;45400;-77
2023/04/26 11:34:52;;;;;;;;;7.00;7.00;;;;;;;;4975986;28;45600;-76
2023/04/26 11:37:18;;;;;;;;;8.25;5.50;;;;;;;;4975971;28;45511;-76
2023/04/26 11:39:43;;;;;;;;;10.75;9.75;;;;;;;;4974995;28;45443;-76
2023/04/26 11:42:12;;;;;;;;;9.25;8.00;;;;;;;;4975680;28;45448;-76
2023/04/26 11:44:37;;;;;;;;;8.75;8.25;;;;;;;;4974398;28;45299;-77
2023/04/26 11:47:03;;;;;;;;;7.25;5.00;;;;;;;;4975746;28;45349;-76
2023/04/26 11:49:30;;;;;;;;;8.75;7.00;;;;;;;;4961906;28;45195;-77
2023/04/26 11:51:55;;;;;;;;;9.00;9.00;;;;;;;;4955615;28;46417;-77
2023/04/26 11:54:28;;;;;;;;;9.00;7.75;;;;;;;;4958352;28;45557;-77
2023/04/26 11:56:53;;;;;;;;;9.00;9.00;;;;;;;;4975823;28;45434;-77
2023/04/26 11:59:28;;;;;;;;;8.00;7.00;;;;;;;;4975530;28;45488;-77
2023/04/26 12:01:54;;;;;;;;;6.25;6.25;;;;;;;;4975495;28;45499;-76
2023/04/26 12:04:26;;;;;;;;;7.00;6.00;;;;;;;;4974198;28;45832;-76
2023/04/26 12:06:51;;;;;;;;;9.75;4.75;;;;;;;;4975614;28;45382;-77
2023/04/26 12:09:21;;;;;;;;;8.00;8.00;;;;;;;;4975808;28;45590;-77
2023/04/26 12:11:47;;;;;;;;;5.25;5.25;;;;;;;;4974143;28;48457;-76
2023/04/26 12:14:14;;;;;;;;;7.25;7.25;;;;;;;;4975358;28;45444;-76
2023/04/26 12:16:41;;;;;;;;;5.75;5.75;;;;;;;;4975356;28;45472;-76
2023/04/26 12:19:07;;;;;;;;;9.00;7.75;;;;;;;;4975717;28;45449;-76
2023/04/26 12:21:41;;;;;;;;;9.75;8.75;;;;;;;;4975305;28;45885;-76
2023/04/26 12:24:07;;;;;;;;;5.25;5.00;;;;;;;;4975138;28;45342;-76
2023/04/26 12:26:44;;;;;;;;;6.00;5.75;;;;;;;;4975635;28;45305;-76
2023/04/26 12:29:09;;;;;;;;;8.00;8.00;;;;;;;;4975189;28;45444;-76
2023/04/26 12:31:34;;;;;;;;;7.00;7.00;;;;;;;;4975115;28;46207;-76
2023/04/26 12:34:00;;;;;;;;;6.00;6.00;;;;;;;;4975579;28;45203;-75
2023/04/26 12:36:25;;;;;;;;;7.50;6.25;;;;;;;;4974681;28;45308;-76
2023/04/26 12:38:50;;;;;;;;;9.00;7.50;;;;;;;;4975557;28;45309;-76
2023/04/26 12:41:16;;;;;;;;;7.25;7.25;;;;;;;;4975403;28;45303;-77
2023/04/26 12:43:41;;;;;;;;;6.75;6.75;;;;;;;;4975173;28;45534;-76
2023/04/26 12:46:06;;;;;;;;;8.50;6.75;;;;;;;;4975183;28;45439;-75
2023/04/26 12:48:31;;;;;;;;;12.25;9.00;;;;;;;;4967320;28;45468;-76
2023/04/26 12:50:57;;;;;;;;;6.50;5.75;;;;;;;;4965821;28;46175;-75
2023/04/26 12:53:22;;;;;;;;;10.50;7.25;;;;;;;;4978685;28;45343;-76
2023/04/26 12:55:48;;;;;;;;;7.50;6.00;;;;;;;;4978245;28;45470;-76
2023/04/26 12:58:13;;;;;;;;;5.25;5.25;;;;;;;;4978063;28;45380;-75
2023/04/26 13:00:38;;;;;;;;;7.50;5.75;;;;;;;;4978089;28;46112;-75
2023/04/26 13:03:03;;;;;;;;;4.00;3.00;;;;;;;;4978174;28;45374;-74
2023/04/26 13:05:29;;;;;;;;;6.75;6.75;;;;;;;;4978579;28;45413;-75
2023/04/26 13:07:54;;;;;;;;;10.25;7.50;;;;;;;;4978215;28;45322;-75
2023/04/26 13:10:19;;;;;;;;;8.25;7.50;;;;;;;;4977990;28;45609;-75
2023/04/26 13:12:45;;;;;;;;;9.00;9.00;;;;;;;;4976944;28;45474;-75
2023/04/26 13:15:10;;;;;;;;;10.00;8.00;;;;;;;;4978052;28;45520;-75
2023/04/26 13:17:36;;;;;;;;;8.75;8.00;;;;;;;;4977936;28;45459;-75
2023/04/26 13:20:05;;;;;;;;;7.75;6.50;;;;;;;;4978113;28;45480;-75
2023/04/26 13:22:30;;;;;;;;;8.50;8.50;;;;;;;;4978075;28;45474;-76
2023/04/26 13:24:56;;;;;;;;;8.50;7.75;;;;;;;;4977631;28;45335;-76
2023/04/26 13:27:21;;;;;;;;;7.25;7.25;;;;;;;;4976308;28;45464;-76
2023/04/26 13:29:46;;;;;;;;;9.00;8.25;;;;;;;;4977818;28;46193;-76
2023/04/26 13:32:11;;;;;;;;;8.75;7.75;;;;;;;;4977822;28;45357;-76
2023/04/26 13:34:38;;;;;;;;;6.75;6.75;;;;;;;;4978144;28;45454;-76
2023/04/26 13:37:03;;;;;;;;;6.75;6.75;;;;;;;;4977816;28;45339;-75
2023/04/26 13:39:29;;;;;;;;;8.25;6.50;;;;;;;;4977068;28;46641;-75
2023/04/26 13:41:54;;;;;;;;;7.25;7.25;;;;;;;;4977816;28;45453;-75
2023/04/26 13:44:19;;;;;;;;;10.75;10.00;;;;;;;;4977647;28;45442;-75
2023/04/26 13:46:45;;;;;;;;;5.50;5.50;;;;;;;;4977772;28;45475;-77
2023/04/26 13:49:10;;;;;;;;;8.50;6.25;;;;;;;;4966160;28;46020;-75
2023/04/26 13:51:36;;;;;;;;;8.75;7.50;;;;;;;;4970116;28;46047;-76
2023/04/26 13:54:01;;;;;;;;;8.50;8.00;;;;;;;;4977388;28;45396;-75
2023/04/26 13:56:27;;;;;;;;;7.75;6.75;;;;;;;;4977275;28;45386;-76
2023/04/26 13:58:55;;;;;;;;;6.50;6.50;;;;;;;;4977402;28;45234;-75
2023/04/26 14:01:21;;;;;;;;;10.25;9.00;;;;;;;;4976633;28;45350;-75
2023/04/26 14:03:46;;;;;;;;;8.00;8.00;;;;;;;;4975819;28;45477;-76
2023/04/26 14:06:11;;;;;;;;;11.75;9.00;;;;;;;;4977009;28;45512;-76
2023/04/26 14:08:36;;;;;;;;;8.75;8.75;;;;;;;;4977093;28;45344;-76
2023/04/26 14:11:02;;;;;;;;;9.50;7.50;;;;;;;;4975614;28;45506;-76
2023/04/26 14:13:27;;;;;;;;;7.25;7.25;;;;;;;;4967324;28;45435;-77
2023/04/26 14:15:52;;;;;;;;;9.50;8.50;;;;;;;;4957808;28;45382;-77
2023/04/26 14:18:17;;;;;;;;;4.75;2.50;;;;;;;;4960047;28;45600;-76
2023/04/26 14:20:42;;;;;;;;;7.50;7.50;;;;;;;;4971635;28;45690;-77
2023/04/26 14:23:08;;;;;;;;;7.75;7.75;;;;;;;;4971825;28;45394;-76
2023/04/26 14:25:33;;;;;;;;;11.00;8.75;;;;;;;;4958340;28;45526;-77